createdAt,value
2023-04-01T00:01:17.139Z,9.17
2023-04-01T00:03:44.010Z,9.16
2023-04-01T00:06:14.643Z,9.17
2023-04-01T00:08:41.383Z,9.18
2023-04-01T00:11:08.042Z,9.18
2023-04-01T00:13:34.721Z,9.17
2023-04-01T00:16:03.401Z,9.16
2023-04-01T00:18:31.275Z,9.14
2023-04-01T00:20:57.924Z,9.16
2023-04-01T00:23:24.558Z,9.15
2023-04-01T00:25:51.469Z,9.13
2023-04-01T00:28:20.403Z,9.09
2023-04-01T00:30:48.005Z,9.10
2023-04-01T00:33:14.948Z,9.09
2023-04-01T00:35:42.795Z,9.07
2023-04-01T00:38:09.527Z,9.06
2023-04-01T00:40:41.642Z,9.06
2023-04-01T00:43:20.285Z,9.04
2023-04-01T00:45:49.665Z,9.04
2023-04-01T00:48:23.508Z,9.03
2023-04-01T00:50:55.935Z,9.02
2023-04-01T00:53:23.905Z,9.05
2023-04-01T00:56:00.663Z,9.05
2023-04-01T00:58:30.689Z,9.03
2023-04-01T01:00:59.811Z,8.99
2023-04-01T01:03:26.682Z,8.97
2023-04-01T01:06:12.278Z,8.93
2023-04-01T01:08:44.637Z,8.88
2023-04-01T01:11:13.194Z,8.83
2023-04-01T01:13:59.461Z,8.80
2023-04-01T01:16:32.484Z,8.77
2023-04-01T01:19:13.636Z,8.77
2023-04-01T01:22:00.475Z,8.75
2023-04-01T01:24:36.075Z,8.72
2023-04-01T01:27:12.876Z,8.69
2023-04-01T01:30:13.920Z,8.68
2023-04-01T01:33:19.829Z,8.68
2023-04-01T01:35:52.804Z,8.67
2023-04-01T01:38:23.646Z,8.69
2023-04-01T01:40:54.707Z,8.68
2023-04-01T01:43:39.664Z,8.68
2023-04-01T01:46:11.741Z,8.66
2023-04-01T01:48:39.549Z,8.65
2023-04-01T01:51:06.699Z,8.65
2023-04-01T01:53:33.392Z,8.63
2023-04-01T01:56:00.122Z,8.60
2023-04-01T01:58:36.667Z,8.61
2023-04-01T02:01:06.912Z,8.62
2023-04-01T02:03:40.529Z,8.62
2023-04-01T02:06:11.902Z,8.61
2023-04-01T02:08:48.213Z,8.61
2023-04-01T02:11:20.845Z,8.61
2023-04-01T02:13:59.239Z,8.61
2023-04-01T02:16:32.644Z,8.59
2023-04-01T02:19:02.544Z,8.59
2023-04-01T02:21:33.116Z,8.58
2023-04-01T02:24:03.071Z,8.56
2023-04-01T02:26:30.650Z,8.56
2023-04-01T02:29:00.095Z,8.55
2023-04-01T02:31:26.919Z,8.57
2023-04-01T02:33:54.483Z,8.57
2023-04-01T02:36:21.798Z,8.56
2023-04-01T02:38:50.657Z,8.55
2023-04-01T02:41:17.774Z,8.56
2023-04-01T02:43:44.453Z,8.55
2023-04-01T02:46:11.204Z,8.57
2023-04-01T02:48:38.208Z,8.57
2023-04-01T02:51:04.963Z,8.58
2023-04-01T02:53:31.620Z,8.58
2023-04-01T02:55:58.293Z,8.56
2023-04-01T02:58:24.927Z,8.58
2023-04-01T03:00:51.797Z,8.60
2023-04-01T03:03:18.853Z,8.60
2023-04-01T03:05:45.534Z,8.62
2023-04-01T03:08:12.816Z,8.63
2023-04-01T03:10:39.569Z,8.62
2023-04-01T03:13:07.155Z,8.62
2023-04-01T03:15:34.083Z,8.63
2023-04-01T03:18:01.153Z,8.62
2023-04-01T03:20:27.816Z,8.63
2023-04-01T03:22:54.466Z,8.65
2023-04-01T03:25:21.415Z,8.66
2023-04-01T03:27:48.078Z,8.65
2023-04-01T03:30:14.806Z,8.68
2023-04-01T03:32:41.553Z,8.66
2023-04-01T03:35:10.557Z,8.68
2023-04-01T03:37:37.748Z,8.71
2023-04-01T03:40:04.913Z,8.70
2023-04-01T03:42:33.212Z,8.68
2023-04-01T03:45:00.124Z,8.70
2023-04-01T03:47:26.810Z,8.68
2023-04-01T03:49:53.594Z,8.68
2023-04-01T03:52:20.330Z,8.68
2023-04-01T03:54:46.984Z,8.70
2023-04-01T03:57:13.788Z,8.69
2023-04-01T03:59:40.470Z,8.69
2023-04-01T04:02:07.147Z,8.68
2023-04-01T04:04:33.856Z,8.69
2023-04-01T04:07:00.543Z,8.69
2023-04-01T04:09:27.227Z,8.69
2023-04-01T04:11:53.960Z,8.69
2023-04-01T04:14:20.603Z,8.68
2023-04-01T04:16:47.273Z,8.67
2023-04-01T04:19:13.982Z,8.67
2023-04-01T04:21:41.784Z,8.67
2023-04-01T04:24:08.775Z,8.69
2023-04-01T04:26:35.882Z,8.69
2023-04-01T04:29:03.175Z,8.70
2023-04-01T04:31:29.901Z,8.71
2023-04-01T04:33:56.646Z,8.70
2023-04-01T04:36:23.502Z,8.70
2023-04-01T04:38:50.023Z,8.71
2023-04-01T04:41:19.082Z,8.73
2023-04-01T04:43:53.959Z,8.72
2023-04-01T04:46:21.623Z,8.72
2023-04-01T04:48:48.168Z,8.71
2023-04-01T04:51:20.194Z,8.74
2023-04-01T04:53:47.834Z,8.72
2023-04-01T04:56:17.942Z,8.72
2023-04-01T04:58:44.405Z,8.71
2023-04-01T05:01:13.027Z,8.71
2023-04-01T05:03:39.821Z,8.70
2023-04-01T05:06:07.563Z,8.71
2023-04-01T05:08:34.909Z,8.71
2023-04-01T05:11:02.384Z,8.71
2023-04-01T05:13:29.220Z,8.71
2023-04-01T05:15:55.948Z,8.71
2023-04-01T05:18:22.914Z,8.73
2023-04-01T05:20:54.392Z,8.70
2023-04-01T05:23:22.689Z,8.72
2023-04-01T05:25:50.685Z,8.70
2023-04-01T05:28:17.870Z,8.71
2023-04-01T05:30:45.338Z,8.69
2023-04-01T05:33:13.351Z,8.75
2023-04-01T05:35:41.167Z,8.76
2023-04-01T05:38:08.236Z,8.74
2023-04-01T05:40:35.568Z,8.73
2023-04-01T05:43:02.122Z,8.76
2023-04-01T05:45:28.717Z,8.74
2023-04-01T05:47:55.411Z,8.72
2023-04-01T05:50:21.915Z,8.73
2023-04-01T05:52:48.397Z,8.76
2023-04-01T05:55:14.882Z,8.77
2023-04-01T05:57:41.714Z,8.76
2023-04-01T06:00:08.629Z,8.78
2023-04-01T06:02:35.162Z,8.79
2023-04-01T06:05:14.340Z,8.80
2023-04-01T06:07:40.972Z,8.79
2023-04-01T06:10:16.282Z,8.79
2023-04-01T06:13:01.485Z,8.78
2023-04-01T06:15:40.911Z,8.78
2023-04-01T06:18:54.017Z,8.77
2023-04-01T06:21:38.903Z,8.81
2023-04-01T06:24:29.500Z,8.83
2023-04-01T06:27:22.446Z,8.84
2023-04-01T06:29:59.220Z,8.85
2023-04-01T06:32:31.560Z,8.88
2023-04-01T06:35:18.790Z,8.91
2023-04-01T06:38:18.621Z,8.91
2023-04-01T06:40:57.507Z,8.93
2023-04-01T06:43:42.963Z,8.97
2023-04-01T06:46:37.452Z,8.98
2023-04-01T06:49:06.766Z,8.99
2023-04-01T06:51:46.677Z,9.00
2023-04-01T06:54:19.642Z,9.00
2023-04-01T06:56:51.672Z,9.02
2023-04-01T06:59:23.224Z,9.01
2023-04-01T07:02:06.635Z,9.06
2023-04-01T07:04:42.041Z,9.10
2023-04-01T07:07:34.203Z,9.12
2023-04-01T07:10:06.099Z,9.11
2023-04-01T07:12:32.667Z,9.12
2023-04-01T07:15:04.935Z,9.09
2023-04-01T07:17:36.362Z,9.09
2023-04-01T07:20:27.728Z,9.08
2023-04-01T07:23:03.686Z,9.05
2023-04-01T07:25:36.432Z,9.04
2023-04-01T07:28:12.969Z,9.05
2023-04-01T07:31:04.582Z,9.04
2023-04-01T07:33:57.835Z,9.04
2023-04-01T07:36:47.276Z,9.04
2023-04-01T07:39:53.450Z,9.02
2023-04-01T07:42:23.010Z,9.00
2023-04-01T07:45:08.606Z,8.95
2023-04-01T07:47:48.798Z,8.66
2023-04-01T07:50:29.855Z,8.33
2023-04-01T07:53:18.002Z,8.07
2023-04-01T07:56:01.194Z,7.89
2023-04-01T07:58:33.775Z,7.65
2023-04-01T08:01:10.075Z,7.59
2023-04-01T08:03:46.524Z,7.52
2023-04-01T08:06:26.531Z,7.50
2023-04-01T08:09:04.471Z,7.39
2023-04-01T08:11:43.481Z,7.38
2023-04-01T08:14:18.895Z,7.38
2023-04-01T08:17:03.142Z,7.20
2023-04-01T08:19:57.459Z,7.13
2023-04-01T08:22:42.659Z,7.02
2023-04-01T08:25:18.695Z,6.91
2023-04-01T08:28:06.946Z,6.82
2023-04-01T08:30:45.091Z,6.75
2023-04-01T08:33:22.473Z,6.70
2023-04-01T08:36:12.796Z,6.70
2023-04-01T08:38:55.445Z,6.62
2023-04-01T08:41:28.541Z,6.61
2023-04-01T08:44:19.726Z,6.62
2023-04-01T08:47:10.776Z,6.61
2023-04-01T08:49:48.487Z,6.66
2023-04-01T08:52:32.853Z,6.57
2023-04-01T08:55:30.394Z,6.51
2023-04-01T08:58:20.500Z,6.49
2023-04-01T09:01:17.792Z,6.50
2023-04-01T09:03:58.450Z,6.56
2023-04-01T09:06:34.337Z,6.54
2023-04-01T09:09:21.496Z,6.52
2023-04-01T09:12:24.477Z,6.48
2023-04-01T09:15:06.390Z,6.41
2023-04-01T09:17:50.974Z,6.36
2023-04-01T09:20:40.425Z,6.37
2023-04-01T09:23:34.418Z,6.30
2023-04-01T09:26:19.088Z,6.29
2023-04-01T09:29:10.858Z,6.22
2023-04-01T09:31:43.978Z,6.25
2023-04-01T09:34:39.904Z,6.27
2023-04-01T09:37:34.813Z,6.33
2023-04-01T09:40:21.275Z,6.34
2023-04-01T09:43:04.834Z,6.38
2023-04-01T09:45:36.418Z,6.35
2023-04-01T09:48:18.028Z,6.30
2023-04-01T09:51:27.588Z,6.27
2023-04-01T09:54:29.508Z,6.14
2023-04-01T09:57:16.131Z,6.17
2023-04-01T10:00:11.669Z,6.13
2023-04-01T10:02:55.141Z,6.17
2023-04-01T10:05:46.388Z,6.18
2023-04-01T10:08:26.584Z,6.25
2023-04-01T10:10:53.162Z,6.21
2023-04-01T10:13:48.262Z,6.15
2023-04-01T10:17:01.832Z,6.09
2023-04-01T10:20:02.024Z,6.12
2023-04-01T10:22:59.031Z,6.10
2023-04-01T10:25:43.357Z,6.04
2023-04-01T10:28:49.722Z,6.03
2023-04-01T10:31:51.599Z,5.95
2023-04-01T10:34:43.607Z,5.95
2023-04-01T10:37:28.920Z,5.94
2023-04-01T10:40:21.022Z,5.96
2023-04-01T10:43:07.707Z,6.01
2023-04-01T10:46:10.405Z,5.95
2023-04-01T10:49:14.551Z,5.94
2023-04-01T10:52:12.645Z,5.88
2023-04-01T10:54:57.024Z,5.90
2023-04-01T10:57:45.114Z,5.89
2023-04-01T11:00:40.320Z,5.92
2023-04-01T11:03:41.824Z,5.96
2023-04-01T11:06:52.708Z,5.93
2023-04-01T11:09:43.962Z,5.93
2023-04-01T11:12:27.123Z,5.95
2023-04-01T11:15:00.444Z,5.92
2023-04-01T11:17:46.657Z,5.92
2023-04-01T11:20:52.229Z,5.92
2023-04-01T11:23:37.419Z,5.94
2023-04-01T11:26:30.294Z,5.89
2023-04-01T11:29:05.658Z,5.92
2023-04-01T11:31:41.195Z,5.88
2023-04-01T11:34:36.306Z,5.91
2023-04-01T11:37:21.521Z,5.89
2023-04-01T11:40:03.314Z,5.90
2023-04-01T11:42:29.691Z,5.93
2023-04-01T11:45:29.543Z,5.96
2023-04-01T11:48:33.875Z,5.89
2023-04-01T11:51:32.287Z,5.93
2023-04-01T11:54:12.750Z,5.91
2023-04-01T11:56:52.759Z,5.90
2023-04-01T11:59:46.346Z,5.94
2023-04-01T12:03:02.023Z,5.96
2023-04-01T12:06:09.877Z,6.02
2023-04-01T12:09:16.116Z,5.99
2023-04-01T12:11:42.604Z,5.98
2023-04-01T12:14:20.510Z,5.93
2023-04-01T12:16:51.409Z,5.91
2023-04-01T12:19:46.000Z,5.93
2023-04-01T12:22:36.205Z,5.96
2023-04-01T12:25:20.453Z,5.98
2023-04-01T12:28:02.281Z,6.00
2023-04-01T12:30:43.479Z,6.04
2023-04-01T12:33:34.134Z,6.03
2023-04-01T12:36:12.769Z,5.97
2023-04-01T12:39:26.191Z,5.92
2023-04-01T12:42:38.425Z,5.91
2023-04-01T12:45:47.683Z,5.95
2023-04-01T12:48:22.987Z,5.95
2023-04-01T12:50:58.508Z,5.97
2023-04-01T12:54:04.110Z,5.97
2023-04-01T12:56:39.666Z,5.98
2023-04-01T12:59:15.346Z,5.94
2023-04-01T13:01:59.210Z,5.95
2023-04-01T13:04:56.901Z,5.89
2023-04-01T13:07:29.901Z,5.80
2023-04-01T13:10:08.023Z,5.76
2023-04-01T13:12:59.465Z,5.70
2023-04-01T13:15:32.244Z,5.69
2023-04-01T13:18:23.903Z,5.69
2023-04-01T13:21:14.797Z,5.66
2023-04-01T13:23:56.621Z,5.57
2023-04-01T13:26:35.714Z,5.53
2023-04-01T13:29:16.484Z,5.51
2023-04-01T13:31:53.270Z,5.50
2023-04-01T13:34:56.772Z,5.52
2023-04-01T13:37:51.662Z,5.50
2023-04-01T13:40:24.209Z,5.46
2023-04-01T13:42:56.565Z,5.47
2023-04-01T13:45:38.636Z,5.38
2023-04-01T13:48:20.022Z,5.36
2023-04-01T13:51:12.603Z,5.34
2023-04-01T13:53:57.841Z,5.31
2023-04-01T13:57:01.605Z,5.26
2023-04-01T14:00:17.740Z,5.24
2023-04-01T14:03:15.336Z,5.26
2023-04-01T14:06:03.162Z,5.28
2023-04-01T14:08:54.290Z,5.29
2023-04-01T14:11:32.142Z,5.26
2023-04-01T14:14:31.261Z,5.25
2023-04-01T14:17:28.822Z,5.22
2023-04-01T14:20:20.169Z,5.14
2023-04-01T14:23:25.155Z,5.07
2023-04-01T14:25:51.573Z,4.99
2023-04-01T14:28:45.755Z,4.97
2023-04-01T14:31:31.317Z,4.96
2023-04-01T14:34:26.104Z,4.92
2023-04-01T14:37:26.407Z,4.89
2023-04-01T14:40:18.393Z,4.90
2023-04-01T14:43:23.746Z,4.91
2023-04-01T14:46:14.727Z,4.96
2023-04-01T14:48:43.835Z,4.96
2023-04-01T14:51:17.887Z,4.94
2023-04-01T14:54:00.487Z,4.92
2023-04-01T14:57:15.901Z,4.90
2023-04-01T14:59:50.406Z,4.88
2023-04-01T15:02:46.094Z,4.81
2023-04-01T15:05:46.341Z,4.78
2023-04-01T15:08:33.618Z,4.74
2023-04-01T15:11:38.582Z,4.69
2023-04-01T15:14:40.742Z,4.70
2023-04-01T15:17:28.699Z,4.72
2023-04-01T15:20:23.094Z,4.71
2023-04-01T15:23:04.513Z,4.69
2023-04-01T15:26:01.346Z,4.72
2023-04-01T15:28:46.580Z,4.64
2023-04-01T15:31:21.281Z,4.62
2023-04-01T15:33:50.778Z,4.61
2023-04-01T15:36:36.127Z,4.58
2023-04-01T15:39:08.496Z,4.59
2023-04-01T15:42:11.802Z,4.56
2023-04-01T15:44:58.770Z,4.57
2023-04-01T15:47:25.407Z,4.59
2023-04-01T15:50:00.974Z,4.55
2023-04-01T15:52:50.030Z,4.53
2023-04-01T15:55:43.983Z,4.52
2023-04-01T15:58:35.297Z,4.46
2023-04-01T16:01:29.852Z,4.38
2023-04-01T16:04:15.312Z,4.38
2023-04-01T16:06:57.966Z,4.31
2023-04-01T16:09:54.312Z,4.32
2023-04-01T16:12:42.632Z,4.33
2023-04-01T16:15:27.838Z,4.31
2023-04-01T16:18:03.428Z,4.24
2023-04-01T16:20:50.911Z,4.25
2023-04-01T16:23:30.968Z,4.23
2023-04-01T16:26:09.283Z,4.19
2023-04-01T16:28:54.876Z,4.13
2023-04-01T16:31:25.935Z,4.12
2023-04-01T16:34:20.639Z,4.11
2023-04-01T16:36:55.759Z,4.09
2023-04-01T16:39:51.155Z,4.08
2023-04-01T16:42:32.106Z,3.99
2023-04-01T16:45:34.593Z,3.98
2023-04-01T16:48:14.533Z,3.95
2023-04-01T16:51:05.496Z,3.91
2023-04-01T16:53:43.980Z,3.92
2023-04-01T16:56:25.878Z,3.93
2023-04-01T16:58:55.338Z,3.90
2023-04-01T17:01:27.126Z,3.92
2023-04-01T17:04:08.877Z,3.92
2023-04-01T17:06:54.575Z,3.90
2023-04-01T17:09:55.372Z,3.89
2023-04-01T17:12:48.434Z,3.83
2023-04-01T17:15:23.313Z,3.80
2023-04-01T17:18:08.231Z,3.71
2023-04-01T17:20:46.936Z,3.76
2023-04-01T17:23:21.183Z,3.73
2023-04-01T17:26:05.485Z,3.69
2023-04-01T17:28:49.032Z,3.63
2023-04-01T17:31:36.654Z,3.64
2023-04-01T17:34:22.153Z,3.62
2023-04-01T17:37:30.031Z,3.62
2023-04-01T17:40:34.432Z,3.60
2023-04-01T17:43:10.272Z,3.58
2023-04-01T17:46:20.630Z,3.59
2023-04-01T17:48:55.777Z,3.59
2023-04-01T17:51:49.521Z,3.54
2023-04-01T17:54:25.685Z,3.52
2023-04-01T17:57:29.918Z,3.49
2023-04-01T18:00:30.130Z,3.48
2023-04-01T18:03:13.304Z,3.45
2023-04-01T18:05:51.501Z,3.44
2023-04-01T18:08:41.889Z,3.42
2023-04-01T18:11:40.051Z,3.43
2023-04-01T18:14:50.983Z,3.37
2023-04-01T18:17:26.596Z,3.39
2023-04-01T18:20:15.899Z,3.31
2023-04-01T18:23:03.613Z,3.27
2023-04-01T18:25:38.205Z,3.27
2023-04-01T18:28:13.522Z,3.27
2023-04-01T18:30:41.298Z,3.25
2023-04-01T18:33:22.356Z,3.26
2023-04-01T18:35:55.415Z,3.23
2023-04-01T18:38:46.527Z,3.23
2023-04-01T18:41:15.770Z,3.20
2023-04-01T18:44:19.675Z,3.22
2023-04-01T18:46:58.828Z,3.21
2023-04-01T18:49:41.888Z,3.21
2023-04-01T18:52:23.705Z,3.19
2023-04-01T18:55:22.039Z,3.22
2023-04-01T18:57:51.887Z,3.22
2023-04-01T19:00:18.345Z,3.20
2023-04-01T19:02:54.786Z,3.21
2023-04-01T19:05:32.890Z,3.19
2023-04-01T19:08:29.781Z,3.21
2023-04-01T19:11:18.568Z,3.20
2023-04-01T19:14:22.064Z,3.20
2023-04-01T19:17:06.938Z,3.19
2023-04-01T19:19:53.073Z,3.19
2023-04-01T19:22:41.301Z,3.18
2023-04-01T19:25:22.768Z,3.09
2023-04-01T19:27:56.645Z,3.08
2023-04-01T19:30:30.515Z,3.01
2023-04-01T19:33:23.185Z,2.96
2023-04-01T19:36:01.606Z,2.94
2023-04-01T19:38:35.995Z,2.88
2023-04-01T19:41:26.325Z,2.89
2023-04-01T19:44:17.364Z,2.85
2023-04-01T19:46:56.482Z,2.81
2023-04-01T19:49:26.112Z,2.82
2023-04-01T19:52:11.316Z,2.79
2023-04-01T19:54:52.930Z,2.74
2023-04-01T19:57:36.093Z,2.76
2023-04-01T20:00:24.181Z,2.76
2023-04-01T20:03:05.817Z,2.71
2023-04-01T20:05:53.768Z,2.69
2023-04-01T20:08:47.252Z,2.65
2023-04-01T20:11:24.442Z,2.64
2023-04-01T20:14:01.761Z,2.68
2023-04-01T20:17:07.308Z,2.67
2023-04-01T20:19:41.991Z,2.70
2023-04-01T20:22:26.990Z,2.69
2023-04-01T20:24:56.475Z,2.67
2023-04-01T20:27:27.869Z,2.67
2023-04-01T20:30:04.499Z,2.68
2023-04-01T20:32:40.932Z,2.68
2023-04-01T20:35:32.360Z,2.66
2023-04-01T20:38:29.905Z,2.63
2023-04-01T20:41:21.350Z,2.55
2023-04-01T20:44:12.041Z,2.43
2023-04-01T20:47:01.642Z,2.35
2023-04-01T20:49:46.594Z,2.26
2023-04-01T20:52:12.994Z,2.23
2023-04-01T20:54:57.899Z,2.17
2023-04-01T20:57:36.500Z,2.10
2023-04-01T21:00:15.451Z,2.06
2023-04-01T21:03:17.502Z,1.99
2023-04-01T21:05:56.379Z,1.94
2023-04-01T21:08:48.863Z,1.90
2023-04-01T21:11:43.443Z,1.83
2023-04-01T21:14:36.470Z,1.76
2023-04-01T21:17:14.422Z,1.72
2023-04-01T21:20:12.556Z,1.66
2023-04-01T21:22:56.247Z,1.66
2023-04-01T21:25:29.745Z,1.62
2023-04-01T21:28:21.122Z,1.59
2023-04-01T21:31:09.269Z,1.58
2023-04-01T21:33:47.716Z,1.54
2023-04-01T21:36:32.067Z,1.53
2023-04-01T21:39:34.740Z,1.49
2023-04-01T21:42:29.985Z,1.48
2023-04-01T21:45:07.195Z,1.47
2023-04-01T21:47:45.840Z,1.39
2023-04-01T21:50:40.394Z,1.42
2023-04-01T21:53:44.302Z,1.38
2023-04-01T21:56:38.272Z,1.39
2023-04-01T21:59:46.030Z,1.35
2023-04-01T22:02:33.982Z,1.33
2023-04-01T22:05:05.436Z,1.30
2023-04-01T22:07:53.408Z,1.27
2023-04-01T22:10:34.137Z,1.24
2023-04-01T22:13:10.974Z,1.23
2023-04-01T22:16:10.320Z,1.24
2023-04-01T22:18:50.251Z,1.24
2023-04-01T22:21:28.032Z,1.20
2023-04-01T22:24:09.489Z,1.16
2023-04-01T22:26:54.571Z,1.14
2023-04-01T22:29:28.196Z,1.11
2023-04-01T22:32:13.564Z,1.07
2023-04-01T22:34:44.578Z,1.04
2023-04-01T22:37:27.649Z,1.02
2023-04-01T22:40:09.479Z,1.00
2023-04-01T22:42:44.243Z,0.99
2023-04-01T22:45:13.709Z,0.94
2023-04-01T22:47:45.487Z,0.92
2023-04-01T22:50:18.721Z,0.90
2023-04-01T22:52:49.176Z,0.89
2023-04-01T22:55:25.647Z,0.87
2023-04-01T22:58:01.371Z,0.82
2023-04-01T23:00:33.270Z,0.81
2023-04-01T23:03:18.265Z,0.79
2023-04-01T23:05:56.556Z,0.75
2023-04-01T23:08:41.822Z,0.73
2023-04-01T23:11:15.144Z,0.70
2023-04-01T23:13:49.240Z,0.70
2023-04-01T23:16:19.019Z,0.69
2023-04-01T23:19:01.444Z,0.68
2023-04-01T23:21:43.562Z,0.63
2023-04-01T23:24:27.839Z,0.59
2023-04-01T23:27:17.787Z,0.57
2023-04-01T23:29:44.608Z,0.56
2023-04-01T23:32:17.938Z,0.53
2023-04-01T23:34:57.991Z,0.48
2023-04-01T23:37:25.494Z,0.49
2023-04-01T23:39:55.332Z,0.53
2023-04-01T23:42:26.132Z,0.53
2023-04-01T23:44:56.965Z,0.47
2023-04-01T23:47:34.623Z,0.54
2023-04-01T23:50:11.898Z,0.53
2023-04-01T23:52:47.461Z,0.49
2023-04-01T23:55:17.934Z,0.49
2023-04-01T23:58:03.132Z,0.50
